sensor_id;sensor_type;location;lat;lon;timestamp;pressure;altitude;pressure_sealevel;temperature;humidity
40794;BME280;26502;51.886;15.604;2022-09-23T00:03:57;101372.38;;;5.39;63.02
40794;BME280;26502;51.886;15.604;2022-09-23T00:09:04;101369.40;;;5.36;63.03
40794;BME280;26502;51.886;15.604;2022-09-23T00:14:11;101366.21;;;5.35;63.30
40794;BME280;26502;51.886;15.604;2022-09-23T00:19:18;101372.53;;;5.01;62.45
40794;BME280;26502;51.886;15.604;2022-09-23T00:24:25;101370.55;;;4.78;62.97
40794;BME280;26502;51.886;15.604;2022-09-23T00:29:36;101369.11;;;4.72;63.36
40794;BME280;26502;51.886;15.604;2022-09-23T00:34:44;101363.30;;;4.64;63.45
40794;BME280;26502;51.886;15.604;2022-09-23T00:39:52;101359.20;;;4.49;63.48
40794;BME280;26502;51.886;15.604;2022-09-23T00:45:00;101355.33;;;4.50;64.13
40794;BME280;26502;51.886;15.604;2022-09-23T00:50:11;101348.90;;;4.79;64.07
40794;BME280;26502;51.886;15.604;2022-09-23T00:55:23;101340.46;;;4.78;63.90
40794;BME280;26502;51.886;15.604;2022-09-23T01:00:31;101336.65;;;4.39;63.56
40794;BME280;26502;51.886;15.604;2022-09-23T01:05:39;101330.04;;;4.13;63.59
40794;BME280;26502;51.886;15.604;2022-09-23T01:10:52;101332.66;;;4.09;64.29
40794;BME280;26502;51.886;15.604;2022-09-23T01:16:07;101324.07;;;4.13;64.50
40794;BME280;26502;51.886;15.604;2022-09-23T01:21:28;101323.55;;;4.17;64.37
40794;BME280;26502;51.886;15.604;2022-09-23T01:26:57;101321.30;;;4.27;64.36
40794;BME280;26502;51.886;15.604;2022-09-23T01:32:13;101322.01;;;4.27;64.44
40794;BME280;26502;51.886;15.604;2022-09-23T01:37:25;101322.62;;;4.04;64.40
40794;BME280;26502;51.886;15.604;2022-09-23T01:42:40;101320.76;;;4.20;64.80
40794;BME280;26502;51.886;15.604;2022-09-23T01:47:53;101318.46;;;4.19;64.52
40794;BME280;26502;51.886;15.604;2022-09-23T01:53:05;101313.48;;;4.04;64.47
40794;BME280;26502;51.886;15.604;2022-09-23T01:58:25;101312.09;;;4.08;64.93
40794;BME280;26502;51.886;15.604;2022-09-23T02:03:36;101313.37;;;4.21;64.51
40794;BME280;26502;51.886;15.604;2022-09-23T02:08:52;101309.20;;;3.92;64.05
40794;BME280;26502;51.886;15.604;2022-09-23T02:14:04;101310.55;;;3.53;64.19
40794;BME280;26502;51.886;15.604;2022-09-23T02:19:20;101301.27;;;3.32;64.61
40794;BME280;26502;51.886;15.604;2022-09-23T02:24:30;101302.96;;;3.46;65.16
40794;BME280;26502;51.886;15.604;2022-09-23T02:29:44;101298.14;;;3.62;64.90
40794;BME280;26502;51.886;15.604;2022-09-23T02:34:58;101292.56;;;3.68;65.00
40794;BME280;26502;51.886;15.604;2022-09-23T02:40:13;101296.45;;;3.44;64.42
40794;BME280;26502;51.886;15.604;2022-09-23T02:45:23;101290.88;;;3.26;64.78
40794;BME280;26502;51.886;15.604;2022-09-23T02:50:30;101293.94;;;3.37;65.15
40794;BME280;26502;51.886;15.604;2022-09-23T02:55:38;101289.87;;;3.31;64.88
40794;BME280;26502;51.886;15.604;2022-09-23T03:00:53;101288.84;;;3.35;65.30
40794;BME280;26502;51.886;15.604;2022-09-23T03:06:13;101285.08;;;3.50;64.96
40794;BME280;26502;51.886;15.604;2022-09-23T03:11:25;101279.92;;;3.40;64.93
40794;BME280;26502;51.886;15.604;2022-09-23T03:16:36;101277.14;;;3.46;65.35
40794;BME280;26502;51.886;15.604;2022-09-23T03:21:48;101272.61;;;3.51;65.28
40794;BME280;26502;51.886;15.604;2022-09-23T03:26:59;101266.31;;;3.56;65.34
40794;BME280;26502;51.886;15.604;2022-09-23T03:32:08;101260.88;;;3.58;65.34
40794;BME280;26502;51.886;15.604;2022-09-23T03:37:19;101257.66;;;3.47;65.17
40794;BME280;26502;51.886;15.604;2022-09-23T03:42:30;101253.11;;;3.50;65.24
40794;BME280;26502;51.886;15.604;2022-09-23T03:47:41;101249.55;;;3.14;64.72
40794;BME280;26502;51.886;15.604;2022-09-23T03:52:47;101246.58;;;2.72;65.07
40794;BME280;26502;51.886;15.604;2022-09-23T03:57:55;101245.10;;;2.64;65.32
40794;BME280;26502;51.886;15.604;2022-09-23T04:03:03;101243.10;;;2.77;65.98
40794;BME280;26502;51.886;15.604;2022-09-23T04:08:10;101239.60;;;2.77;65.37
40794;BME280;26502;51.886;15.604;2022-09-23T04:13:17;101238.71;;;2.75;65.50
40794;BME280;26502;51.886;15.604;2022-09-23T04:18:24;101235.36;;;2.54;65.39
40794;BME280;26502;51.886;15.604;2022-09-23T04:23:31;101235.67;;;2.49;65.93
40794;BME280;26502;51.886;15.604;2022-09-23T04:28:38;101231.96;;;2.65;65.71
40794;BME280;26502;51.886;15.604;2022-09-23T04:33:45;101225.75;;;2.77;66.03
40794;BME280;26502;51.886;15.604;2022-09-23T04:38:52;101227.72;;;2.62;65.46
40794;BME280;26502;51.886;15.604;2022-09-23T04:44:00;101231.87;;;2.20;65.51
40794;BME280;26502;51.886;15.604;2022-09-23T04:49:07;101226.37;;;2.15;66.16
40794;BME280;26502;51.886;15.604;2022-09-23T04:54:14;101228.28;;;2.29;66.37
40794;BME280;26502;51.886;15.604;2022-09-23T04:59:21;101225.60;;;2.41;66.43
40794;BME280;26502;51.886;15.604;2022-09-23T05:04:29;101226.63;;;2.57;66.23
40794;BME280;26502;51.886;15.604;2022-09-23T05:09:37;101227.52;;;2.60;66.21
40794;BME280;26502;51.886;15.604;2022-09-23T05:14:44;101231.95;;;2.63;66.60
40794;BME280;26502;51.886;15.604;2022-09-23T05:19:51;101234.33;;;2.74;66.59
40794;BME280;26502;51.886;15.604;2022-09-23T05:24:59;101228.71;;;2.76;66.53
40794;BME280;26502;51.886;15.604;2022-09-23T05:30:10;101230.71;;;2.84;66.28
40794;BME280;26502;51.886;15.604;2022-09-23T05:35:17;101227.64;;;2.95;66.55
40794;BME280;26502;51.886;15.604;2022-09-23T05:40:25;101226.78;;;2.97;66.21
40794;BME280;26502;51.886;15.604;2022-09-23T05:45:32;101234.79;;;2.88;66.58
40794;BME280;26502;51.886;15.604;2022-09-23T05:50:40;101241.36;;;3.02;66.40
40794;BME280;26502;51.886;15.604;2022-09-23T05:55:54;101237.16;;;3.25;66.80
40794;BME280;26502;51.886;15.604;2022-09-23T06:01:09;101237.23;;;3.37;66.51
40794;BME280;26502;51.886;15.604;2022-09-23T06:06:17;101237.66;;;3.50;66.68
40794;BME280;26502;51.886;15.604;2022-09-23T06:11:25;101236.88;;;3.66;67.01
40794;BME280;26502;51.886;15.604;2022-09-23T06:16:35;101236.42;;;3.84;67.21
40794;BME280;26502;51.886;15.604;2022-09-23T06:21:42;101233.27;;;3.83;67.04
40794;BME280;26502;51.886;15.604;2022-09-23T06:26:50;101231.70;;;3.90;67.38
40794;BME280;26502;51.886;15.604;2022-09-23T06:31:57;101233.16;;;4.09;67.88
40794;BME280;26502;51.886;15.604;2022-09-23T06:37:05;101233.74;;;4.26;67.87
40794;BME280;26502;51.886;15.604;2022-09-23T06:42:13;101226.24;;;4.58;68.26
40794;BME280;26502;51.886;15.604;2022-09-23T06:47:21;101223.44;;;4.89;68.19
40794;BME280;26502;51.886;15.604;2022-09-23T06:52:28;101222.35;;;5.16;68.50
40794;BME280;26502;51.886;15.604;2022-09-23T06:57:35;101214.73;;;5.40;68.40
40794;BME280;26502;51.886;15.604;2022-09-23T07:02:43;101216.25;;;5.61;68.67
40794;BME280;26502;51.886;15.604;2022-09-23T07:07:50;101217.19;;;5.93;69.04
40794;BME280;26502;51.886;15.604;2022-09-23T07:13:03;101223.61;;;6.19;69.25
40794;BME280;26502;51.886;15.604;2022-09-23T07:18:10;101228.29;;;6.60;69.67
40794;BME280;26502;51.886;15.604;2022-09-23T07:23:17;101221.73;;;7.05;69.74
40794;BME280;26502;51.886;15.604;2022-09-23T07:28:24;101221.02;;;7.41;69.60
40794;BME280;26502;51.886;15.604;2022-09-23T07:33:33;101225.33;;;7.67;69.04
40794;BME280;26502;51.886;15.604;2022-09-23T07:38:43;101227.99;;;7.81;69.17
40794;BME280;26502;51.886;15.604;2022-09-23T07:43:52;101230.46;;;7.97;69.10
40794;BME280;26502;51.886;15.604;2022-09-23T07:49:06;101229.91;;;8.24;69.25
40794;BME280;26502;51.886;15.604;2022-09-23T07:54:17;101228.70;;;8.60;69.13
40794;BME280;26502;51.886;15.604;2022-09-23T07:59:27;101226.08;;;9.03;68.98
40794;BME280;26502;51.886;15.604;2022-09-23T08:04:37;101226.94;;;9.24;68.82
40794;BME280;26502;51.886;15.604;2022-09-23T08:09:46;101221.91;;;9.56;68.75
40794;BME280;26502;51.886;15.604;2022-09-23T08:14:57;101223.04;;;9.87;68.54
40794;BME280;26502;51.886;15.604;2022-09-23T08:20:07;101217.31;;;10.15;68.32
40794;BME280;26502;51.886;15.604;2022-09-23T08:25:38;101214.64;;;10.48;68.07
40794;BME280;26502;51.886;15.604;2022-09-23T08:30:49;101209.52;;;10.77;67.83
40794;BME280;26502;51.886;15.604;2022-09-23T08:36:03;101208.32;;;11.03;67.32
40794;BME280;26502;51.886;15.604;2022-09-23T08:41:19;101206.12;;;11.33;67.02
40794;BME280;26502;51.886;15.604;2022-09-23T08:46:36;101204.59;;;11.62;67.14
40794;BME280;26502;51.886;15.604;2022-09-23T08:51:49;101195.23;;;11.90;66.22
40794;BME280;26502;51.886;15.604;2022-09-23T08:57:02;101188.48;;;12.20;66.25
40794;BME280;26502;51.886;15.604;2022-09-23T09:02:17;101185.27;;;12.44;65.75
40794;BME280;26502;51.886;15.604;2022-09-23T09:07:27;101178.27;;;12.62;65.38
40794;BME280;26502;51.886;15.604;2022-09-23T09:12:43;101174.42;;;12.81;64.88
40794;BME280;26502;51.886;15.604;2022-09-23T09:18:15;101175.27;;;12.98;64.86
40794;BME280;26502;51.886;15.604;2022-09-23T09:23:30;101166.95;;;13.22;64.63
40794;BME280;26502;51.886;15.604;2022-09-23T09:28:46;101170.22;;;13.40;64.21
40794;BME280;26502;51.886;15.604;2022-09-23T09:34:03;101169.18;;;13.60;63.79
40794;BME280;26502;51.886;15.604;2022-09-23T09:39:14;101162.05;;;13.73;63.34
40794;BME280;26502;51.886;15.604;2022-09-23T09:44:27;101151.17;;;13.96;63.30
40794;BME280;26502;51.886;15.604;2022-09-23T09:49:45;101142.66;;;14.22;62.81
40794;BME280;26502;51.886;15.604;2022-09-23T09:55:06;101136.59;;;14.40;62.03
40794;BME280;26502;51.886;15.604;2022-09-23T10:00:42;101131.14;;;14.59;61.81
40794;BME280;26502;51.886;15.604;2022-09-23T10:05:54;101126.08;;;14.95;61.29
40794;BME280;26502;51.886;15.604;2022-09-23T10:11:04;101123.48;;;15.13;59.81
40794;BME280;26502;51.886;15.604;2022-09-23T10:16:16;101117.11;;;15.00;59.38
40794;BME280;26502;51.886;15.604;2022-09-23T10:21:25;101117.88;;;15.23;59.56
40794;BME280;26502;51.886;15.604;2022-09-23T10:26:43;101109.58;;;15.28;58.72
40794;BME280;26502;51.886;15.604;2022-09-23T10:32:20;101109.83;;;15.39;58.46
40794;BME280;26502;51.886;15.604;2022-09-23T10:37:35;101097.37;;;15.72;58.26
40794;BME280;26502;51.886;15.604;2022-09-23T10:42:55;101093.75;;;15.92;57.71
40794;BME280;26502;51.886;15.604;2022-09-23T10:48:27;101089.48;;;16.17;56.82
40794;BME280;26502;51.886;15.604;2022-09-23T10:53:47;101083.07;;;16.27;56.26
40794;BME280;26502;51.886;15.604;2022-09-23T10:59:33;101074.96;;;16.21;55.43
40794;BME280;26502;51.886;15.604;2022-09-23T11:05:13;101066.36;;;16.57;54.66
40794;BME280;26502;51.886;15.604;2022-09-23T11:16:15;101056.77;;;17.30;53.15
40794;BME280;26502;51.886;15.604;2022-09-23T11:21:49;101053.80;;;17.12;51.41
40794;BME280;26502;51.886;15.604;2022-09-23T11:27:09;101037.62;;;17.29;50.62
40794;BME280;26502;51.886;15.604;2022-09-23T11:38:00;101029.02;;;17.90;48.56
40794;BME280;26502;51.886;15.604;2022-09-23T11:43:17;101025.58;;;17.81;48.50
40794;BME280;26502;51.886;15.604;2022-09-23T11:48:31;101020.52;;;17.37;48.37
40794;BME280;26502;51.886;15.604;2022-09-23T11:53:44;101013.42;;;17.19;48.91
40794;BME280;26502;51.886;15.604;2022-09-23T11:58:59;101001.29;;;17.66;48.68
40794;BME280;26502;51.886;15.604;2022-09-23T12:04:21;100988.61;;;17.77;48.46
40794;BME280;26502;51.886;15.604;2022-09-23T12:09:36;100984.70;;;17.54;48.06
40794;BME280;26502;51.886;15.604;2022-09-23T12:14:53;100979.42;;;17.71;47.94
40794;BME280;26502;51.886;15.604;2022-09-23T12:20:17;100973.42;;;17.57;47.64
40794;BME280;26502;51.886;15.604;2022-09-23T12:25:42;100969.40;;;17.36;47.72
40794;BME280;26502;51.886;15.604;2022-09-23T12:30:55;100965.00;;;17.44;47.78
40794;BME280;26502;51.886;15.604;2022-09-23T12:36:07;100961.36;;;18.02;47.87
40794;BME280;26502;51.886;15.604;2022-09-23T12:41:26;100959.48;;;18.33;47.07
40794;BME280;26502;51.886;15.604;2022-09-23T12:46:39;100954.05;;;17.91;46.69
40794;BME280;26502;51.886;15.604;2022-09-23T12:52:19;100954.80;;;17.43;46.30
40794;BME280;26502;51.886;15.604;2022-09-23T12:57:43;100953.66;;;17.16;46.68
40794;BME280;26502;51.886;15.604;2022-09-23T13:02:57;100944.92;;;17.18;46.89
40794;BME280;26502;51.886;15.604;2022-09-23T13:08:40;100940.20;;;17.06;46.79
40794;BME280;26502;51.886;15.604;2022-09-23T13:13:52;100929.98;;;16.96;47.08
40794;BME280;26502;51.886;15.604;2022-09-23T13:19:05;100919.60;;;16.92;46.84
40794;BME280;26502;51.886;15.604;2022-09-23T13:24:33;100915.61;;;16.66;46.54
40794;BME280;26502;51.886;15.604;2022-09-23T13:29:46;100912.30;;;16.58;47.22
40794;BME280;26502;51.886;15.604;2022-09-23T13:35:02;100903.80;;;16.49;47.42
40794;BME280;26502;51.886;15.604;2022-09-23T13:40:22;100906.08;;;16.30;47.21
40794;BME280;26502;51.886;15.604;2022-09-23T13:45:38;100901.76;;;16.17;47.39
40794;BME280;26502;51.886;15.604;2022-09-23T13:50:51;100893.30;;;16.31;47.78
40794;BME280;26502;51.886;15.604;2022-09-23T13:56:10;100886.00;;;16.43;47.58
40794;BME280;26502;51.886;15.604;2022-09-23T14:01:22;100880.60;;;16.51;47.65
40794;BME280;26502;51.886;15.604;2022-09-23T14:06:35;100875.09;;;16.76;47.51
40794;BME280;26502;51.886;15.604;2022-09-23T14:11:48;100869.85;;;16.96;47.39
40794;BME280;26502;51.886;15.604;2022-09-23T14:16:58;100865.48;;;16.88;46.98
40794;BME280;26502;51.886;15.604;2022-09-23T14:22:22;100865.64;;;16.72;47.05
40794;BME280;26502;51.886;15.604;2022-09-23T14:32:54;100856.26;;;16.69;47.72
40794;BME280;26502;51.886;15.604;2022-09-23T14:38:02;100856.10;;;16.69;48.14
40794;BME280;26502;51.886;15.604;2022-09-23T14:43:27;100853.80;;;16.58;47.82
40794;BME280;26502;51.886;15.604;2022-09-23T14:48:35;100846.77;;;16.82;48.71
40794;BME280;26502;51.886;15.604;2022-09-23T14:53:43;100842.69;;;17.11;48.30
40794;BME280;26502;51.886;15.604;2022-09-23T14:58:54;100837.60;;;17.15;47.97
40794;BME280;26502;51.886;15.604;2022-09-23T15:04:12;100835.98;;;17.21;48.38
40794;BME280;26502;51.886;15.604;2022-09-23T15:09:25;100832.03;;;17.03;47.67
40794;BME280;26502;51.886;15.604;2022-09-23T15:14:36;100831.25;;;16.87;47.90
40794;BME280;26502;51.886;15.604;2022-09-23T15:19:46;100826.54;;;16.81;48.07
40794;BME280;26502;51.886;15.604;2022-09-23T15:25:10;100817.86;;;16.79;48.61
40794;BME280;26502;51.886;15.604;2022-09-23T15:30:19;100811.80;;;16.59;48.11
40794;BME280;26502;51.886;15.604;2022-09-23T15:35:27;100811.45;;;16.50;48.60
40794;BME280;26502;51.886;15.604;2022-09-23T15:40:38;100817.02;;;16.33;48.63
40794;BME280;26502;51.886;15.604;2022-09-23T15:45:47;100820.14;;;16.31;49.74
40794;BME280;26502;51.886;15.604;2022-09-23T15:50:57;100815.79;;;16.33;50.49
40794;BME280;26502;51.886;15.604;2022-09-23T15:56:08;100815.98;;;16.29;50.95
40794;BME280;26502;51.886;15.604;2022-09-23T16:01:19;100809.58;;;16.21;51.55
40794;BME280;26502;51.886;15.604;2022-09-23T16:06:29;100808.36;;;16.10;51.87
40794;BME280;26502;51.886;15.604;2022-09-23T16:11:37;100806.09;;;15.92;52.08
40794;BME280;26502;51.886;15.604;2022-09-23T16:16:46;100805.73;;;15.78;53.00
40794;BME280;26502;51.886;15.604;2022-09-23T16:21:54;100803.41;;;15.75;53.19
40794;BME280;26502;51.886;15.604;2022-09-23T16:27:05;100798.85;;;15.55;53.50
40794;BME280;26502;51.886;15.604;2022-09-23T16:32:14;100798.96;;;15.32;53.74
40794;BME280;26502;51.886;15.604;2022-09-23T16:37:21;100797.41;;;15.02;54.07
40794;BME280;26502;51.886;15.604;2022-09-23T16:42:29;100798.24;;;14.73;54.50
40794;BME280;26502;51.886;15.604;2022-09-23T16:47:42;100804.30;;;14.54;55.03
40794;BME280;26502;51.886;15.604;2022-09-23T16:52:52;100810.73;;;14.35;55.31
40794;BME280;26502;51.886;15.604;2022-09-23T16:58:00;100810.09;;;14.14;55.60
40794;BME280;26502;51.886;15.604;2022-09-23T17:03:08;100807.59;;;13.98;56.14
40794;BME280;26502;51.886;15.604;2022-09-23T17:08:34;100799.61;;;13.84;56.36
40794;BME280;26502;51.886;15.604;2022-09-23T17:13:42;100803.38;;;13.67;56.84
40794;BME280;26502;51.886;15.604;2022-09-23T17:18:51;100799.35;;;13.58;56.99
40794;BME280;26502;51.886;15.604;2022-09-23T17:23:59;100796.44;;;13.46;57.17
40794;BME280;26502;51.886;15.604;2022-09-23T17:29:08;100796.66;;;13.32;57.45
40794;BME280;26502;51.886;15.604;2022-09-23T17:34:15;100791.55;;;13.17;57.71
40794;BME280;26502;51.886;15.604;2022-09-23T17:39:23;100791.48;;;13.06;58.10
40794;BME280;26502;51.886;15.604;2022-09-23T17:44:31;100795.54;;;12.94;58.47
40794;BME280;26502;51.886;15.604;2022-09-23T17:49:39;100797.52;;;12.80;58.71
40794;BME280;26502;51.886;15.604;2022-09-23T17:54:47;100791.26;;;12.62;59.04
40794;BME280;26502;51.886;15.604;2022-09-23T17:59:55;100788.45;;;12.43;59.25
40794;BME280;26502;51.886;15.604;2022-09-23T18:05:03;100789.04;;;12.27;59.56
40794;BME280;26502;51.886;15.604;2022-09-23T18:10:10;100783.88;;;12.13;59.80
40794;BME280;26502;51.886;15.604;2022-09-23T18:15:17;100789.45;;;11.96;60.04
40794;BME280;26502;51.886;15.604;2022-09-23T18:20:27;100782.70;;;11.96;60.37
40794;BME280;26502;51.886;15.604;2022-09-23T18:25:35;100787.40;;;11.89;60.58
40794;BME280;26502;51.886;15.604;2022-09-23T18:30:54;100787.15;;;11.81;60.90
40794;BME280;26502;51.886;15.604;2022-09-23T18:36:00;100785.35;;;11.71;61.20
40794;BME280;26502;51.886;15.604;2022-09-23T18:41:08;100785.90;;;11.55;61.27
40794;BME280;26502;51.886;15.604;2022-09-23T18:46:16;100788.39;;;11.45;61.45
40794;BME280;26502;51.886;15.604;2022-09-23T18:51:25;100788.98;;;11.33;61.70
40794;BME280;26502;51.886;15.604;2022-09-23T18:56:37;100786.56;;;11.31;62.04
40794;BME280;26502;51.886;15.604;2022-09-23T19:01:47;100789.20;;;11.37;62.34
40794;BME280;26502;51.886;15.604;2022-09-23T19:06:55;100790.17;;;11.40;62.27
40794;BME280;26502;51.886;15.604;2022-09-23T19:12:05;100784.82;;;11.35;62.33
40794;BME280;26502;51.886;15.604;2022-09-23T19:17:14;100786.21;;;11.30;62.30
40794;BME280;26502;51.886;15.604;2022-09-23T19:22:22;100784.97;;;11.20;62.35
40794;BME280;26502;51.886;15.604;2022-09-23T19:27:29;100780.80;;;11.11;62.31
40794;BME280;26502;51.886;15.604;2022-09-23T19:32:37;100784.80;;;11.14;62.76
40794;BME280;26502;51.886;15.604;2022-09-23T19:37:49;100785.10;;;11.10;62.70
40794;BME280;26502;51.886;15.604;2022-09-23T19:43:01;100787.98;;;11.09;62.82
40794;BME280;26502;51.886;15.604;2022-09-23T19:48:11;100788.19;;;11.03;62.88
40794;BME280;26502;51.886;15.604;2022-09-23T19:53:21;100787.86;;;10.97;62.91
40794;BME280;26502;51.886;15.604;2022-09-23T19:58:29;100785.70;;;10.87;63.04
40794;BME280;26502;51.886;15.604;2022-09-23T20:03:36;100785.27;;;10.77;62.94
40794;BME280;26502;51.886;15.604;2022-09-23T20:08:45;100787.39;;;10.67;62.99
40794;BME280;26502;51.886;15.604;2022-09-23T20:13:54;100782.98;;;10.54;63.03
40794;BME280;26502;51.886;15.604;2022-09-23T20:19:08;100778.45;;;10.39;63.07
40794;BME280;26502;51.886;15.604;2022-09-23T20:24:17;100782.67;;;10.27;63.00
40794;BME280;26502;51.886;15.604;2022-09-23T20:29:25;100785.14;;;10.16;63.45
40794;BME280;26502;51.886;15.604;2022-09-23T20:34:32;100780.92;;;10.02;63.34
40794;BME280;26502;51.886;15.604;2022-09-23T20:39:39;100778.03;;;9.97;63.46
40794;BME280;26502;51.886;15.604;2022-09-23T20:44:48;100776.95;;;9.91;63.62
40794;BME280;26502;51.886;15.604;2022-09-23T20:49:55;100773.29;;;9.77;63.54
40794;BME280;26502;51.886;15.604;2022-09-23T20:55:02;100771.50;;;9.70;63.68
40794;BME280;26502;51.886;15.604;2022-09-23T21:00:14;100770.96;;;9.65;63.99
40794;BME280;26502;51.886;15.604;2022-09-23T21:05:22;100764.72;;;9.66;64.23
40794;BME280;26502;51.886;15.604;2022-09-23T21:10:29;100760.27;;;9.73;64.23
40794;BME280;26502;51.886;15.604;2022-09-23T21:15:37;100756.63;;;9.70;64.20
40794;BME280;26502;51.886;15.604;2022-09-23T21:20:44;100756.46;;;9.63;64.35
40794;BME280;26502;51.886;15.604;2022-09-23T21:26:03;100753.77;;;9.58;64.25
40794;BME280;26502;51.886;15.604;2022-09-23T21:31:12;100754.72;;;9.55;64.48
40794;BME280;26502;51.886;15.604;2022-09-23T21:36:27;100754.13;;;9.57;64.64
40794;BME280;26502;51.886;15.604;2022-09-23T21:41:35;100753.86;;;9.48;64.69
40794;BME280;26502;51.886;15.604;2022-09-23T21:46:42;100750.91;;;9.38;64.95
40794;BME280;26502;51.886;15.604;2022-09-23T21:51:49;100752.42;;;9.42;65.20
40794;BME280;26502;51.886;15.604;2022-09-23T21:57:06;100748.54;;;9.41;65.18
40794;BME280;26502;51.886;15.604;2022-09-23T22:02:14;100743.55;;;9.42;65.48
40794;BME280;26502;51.886;15.604;2022-09-23T22:07:22;100744.99;;;9.41;65.40
40794;BME280;26502;51.886;15.604;2022-09-23T22:12:30;100738.73;;;9.37;65.61
40794;BME280;26502;51.886;15.604;2022-09-23T22:17:38;100736.83;;;9.28;65.83
40794;BME280;26502;51.886;15.604;2022-09-23T22:22:46;100727.73;;;9.30;65.96
40794;BME280;26502;51.886;15.604;2022-09-23T22:27:56;100726.26;;;9.26;65.99
40794;BME280;26502;51.886;15.604;2022-09-23T22:33:20;100729.46;;;9.32;66.37
40794;BME280;26502;51.886;15.604;2022-09-23T22:38:28;100723.57;;;9.34;66.39
40794;BME280;26502;51.886;15.604;2022-09-23T22:43:35;100720.93;;;9.40;66.47
40794;BME280;26502;51.886;15.604;2022-09-23T22:48:43;100720.73;;;9.40;66.67
40794;BME280;26502;51.886;15.604;2022-09-23T22:53:52;100718.73;;;9.42;66.76
40794;BME280;26502;51.886;15.604;2022-09-23T22:59:02;100718.15;;;9.44;66.82
40794;BME280;26502;51.886;15.604;2022-09-23T23:04:10;100715.43;;;9.47;66.94
40794;BME280;26502;51.886;15.604;2022-09-23T23:09:19;100709.79;;;9.45;66.76
40794;BME280;26502;51.886;15.604;2022-09-23T23:14:27;100708.48;;;9.42;66.87
40794;BME280;26502;51.886;15.604;2022-09-23T23:19:36;100705.16;;;9.46;67.19
40794;BME280;26502;51.886;15.604;2022-09-23T23:24:45;100706.00;;;9.41;67.20
40794;BME280;26502;51.886;15.604;2022-09-23T23:29:54;100702.39;;;9.37;67.24
40794;BME280;26502;51.886;15.604;2022-09-23T23:35:00;100699.89;;;9.38;67.18
40794;BME280;26502;51.886;15.604;2022-09-23T23:40:10;100698.23;;;9.34;67.37
40794;BME280;26502;51.886;15.604;2022-09-23T23:45:17;100697.93;;;9.32;67.62
40794;BME280;26502;51.886;15.604;2022-09-23T23:50:24;100696.63;;;9.34;67.77
40794;BME280;26502;51.886;15.604;2022-09-23T23:55:32;100691.08;;;9.36;67.81
